sensor_id;sensor_type;location;lat;lon;timestamp;P1;durP1;ratioP1;P2;durP2;ratioP2
6505;SDS011;3286;49.858;8.768;2023-03-22T00:00:11;4.33;;;2.90;;
6505;SDS011;3286;49.858;8.768;2023-03-22T00:02:39;5.77;;;2.80;;
6505;SDS011;3286;49.858;8.768;2023-03-22T00:05:06;5.40;;;3.23;;
6505;SDS011;3286;49.858;8.768;2023-03-22T00:07:33;4.97;;;3.57;;
6505;SDS011;3286;49.858;8.768;2023-03-22T00:10:03;3.77;;;2.90;;
6505;SDS011;3286;49.858;8.768;2023-03-22T00:12:30;4.23;;;3.00;;
6505;SDS011;3286;49.858;8.768;2023-03-22T00:14:57;4.37;;;2.93;;
6505;SDS011;3286;49.858;8.768;2023-03-22T00:17:24;4.00;;;3.03;;
6505;SDS011;3286;49.858;8.768;2023-03-22T00:19:50;5.10;;;3.03;;
6505;SDS011;3286;49.858;8.768;2023-03-22T00:22:18;5.70;;;3.00;;
6505;SDS011;3286;49.858;8.768;2023-03-22T00:24:45;6.30;;;3.00;;
6505;SDS011;3286;49.858;8.768;2023-03-22T00:27:13;3.33;;;2.80;;
6505;SDS011;3286;49.858;8.768;2023-03-22T00:29:40;4.27;;;2.70;;
6505;SDS011;3286;49.858;8.768;2023-03-22T00:32:07;4.73;;;2.87;;
6505;SDS011;3286;49.858;8.768;2023-03-22T00:34:33;4.00;;;2.83;;
6505;SDS011;3286;49.858;8.768;2023-03-22T00:37:00;3.60;;;2.67;;
6505;SDS011;3286;49.858;8.768;2023-03-22T00:39:27;6.13;;;3.17;;
6505;SDS011;3286;49.858;8.768;2023-03-22T00:41:53;4.60;;;3.10;;
6505;SDS011;3286;49.858;8.768;2023-03-22T00:44:21;4.60;;;2.90;;
6505;SDS011;3286;49.858;8.768;2023-03-22T00:46:48;5.30;;;2.80;;
6505;SDS011;3286;49.858;8.768;2023-03-22T00:49:14;3.80;;;2.90;;
6505;SDS011;3286;49.858;8.768;2023-03-22T00:51:41;4.83;;;3.00;;
6505;SDS011;3286;49.858;8.768;2023-03-22T00:54:08;3.73;;;2.80;;
6505;SDS011;3286;49.858;8.768;2023-03-22T00:56:34;4.83;;;2.60;;
6505;SDS011;3286;49.858;8.768;2023-03-22T00:59:02;5.23;;;2.47;;
6505;SDS011;3286;49.858;8.768;2023-03-22T01:01:30;5.80;;;3.07;;
6505;SDS011;3286;49.858;8.768;2023-03-22T01:03:57;4.30;;;2.77;;
6505;SDS011;3286;49.858;8.768;2023-03-22T01:06:24;5.20;;;2.90;;
6505;SDS011;3286;49.858;8.768;2023-03-22T01:08:50;5.67;;;2.83;;
6505;SDS011;3286;49.858;8.768;2023-03-22T01:11:19;5.50;;;2.90;;
6505;SDS011;3286;49.858;8.768;2023-03-22T01:13:46;7.07;;;2.90;;
6505;SDS011;3286;49.858;8.768;2023-03-22T01:16:13;5.53;;;3.10;;
6505;SDS011;3286;49.858;8.768;2023-03-22T01:18:41;3.40;;;2.70;;
6505;SDS011;3286;49.858;8.768;2023-03-22T01:21:08;4.37;;;2.90;;
6505;SDS011;3286;49.858;8.768;2023-03-22T01:23:35;4.17;;;3.00;;
6505;SDS011;3286;49.858;8.768;2023-03-22T01:26:02;4.27;;;2.80;;
6505;SDS011;3286;49.858;8.768;2023-03-22T01:28:30;4.93;;;2.80;;
6505;SDS011;3286;49.858;8.768;2023-03-22T01:30:59;2.90;;;2.43;;
6505;SDS011;3286;49.858;8.768;2023-03-22T01:33:26;4.93;;;2.77;;
6505;SDS011;3286;49.858;8.768;2023-03-22T01:35:54;3.40;;;2.53;;
6505;SDS011;3286;49.858;8.768;2023-03-22T01:38:21;4.80;;;3.00;;
6505;SDS011;3286;49.858;8.768;2023-03-22T01:40:48;3.40;;;2.73;;
6505;SDS011;3286;49.858;8.768;2023-03-22T01:43:15;4.20;;;2.83;;
6505;SDS011;3286;49.858;8.768;2023-03-22T01:45:42;4.07;;;2.87;;
6505;SDS011;3286;49.858;8.768;2023-03-22T01:48:14;5.40;;;2.77;;
6505;SDS011;3286;49.858;8.768;2023-03-22T01:50:47;4.10;;;2.90;;
6505;SDS011;3286;49.858;8.768;2023-03-22T01:53:22;5.20;;;3.13;;
6505;SDS011;3286;49.858;8.768;2023-03-22T01:55:51;4.83;;;2.80;;
6505;SDS011;3286;49.858;8.768;2023-03-22T01:58:20;5.17;;;2.77;;
6505;SDS011;3286;49.858;8.768;2023-03-22T02:00:47;3.33;;;2.80;;
6505;SDS011;3286;49.858;8.768;2023-03-22T02:03:18;7.60;;;3.00;;
6505;SDS011;3286;49.858;8.768;2023-03-22T02:05:53;7.23;;;3.17;;
6505;SDS011;3286;49.858;8.768;2023-03-22T02:08:20;4.10;;;2.90;;
6505;SDS011;3286;49.858;8.768;2023-03-22T02:10:48;7.57;;;3.00;;
6505;SDS011;3286;49.858;8.768;2023-03-22T02:13:18;5.87;;;3.03;;
6505;SDS011;3286;49.858;8.768;2023-03-22T02:16:06;4.43;;;2.90;;
6505;SDS011;3286;49.858;8.768;2023-03-22T02:18:51;4.60;;;2.73;;
6505;SDS011;3286;49.858;8.768;2023-03-22T02:21:54;3.77;;;2.87;;
6505;SDS011;3286;49.858;8.768;2023-03-22T02:24:47;4.43;;;3.00;;
6505;SDS011;3286;49.858;8.768;2023-03-22T02:27:34;5.47;;;2.70;;
6505;SDS011;3286;49.858;8.768;2023-03-22T02:30:15;5.73;;;3.10;;
6505;SDS011;3286;49.858;8.768;2023-03-22T02:32:59;5.27;;;2.93;;
6505;SDS011;3286;49.858;8.768;2023-03-22T02:38:52;5.27;;;3.00;;
6505;SDS011;3286;49.858;8.768;2023-03-22T02:41:32;4.23;;;2.70;;
6505;SDS011;3286;49.858;8.768;2023-03-22T02:44:07;7.97;;;3.40;;
6505;SDS011;3286;49.858;8.768;2023-03-22T02:46:43;4.87;;;2.83;;
6505;SDS011;3286;49.858;8.768;2023-03-22T02:49:15;5.83;;;3.07;;
6505;SDS011;3286;49.858;8.768;2023-03-22T02:51:48;5.53;;;3.00;;
6505;SDS011;3286;49.858;8.768;2023-03-22T02:54:22;4.77;;;2.90;;
6505;SDS011;3286;49.858;8.768;2023-03-22T02:56:54;5.07;;;2.87;;
6505;SDS011;3286;49.858;8.768;2023-03-22T02:59:26;5.27;;;2.90;;
6505;SDS011;3286;49.858;8.768;2023-03-22T03:01:57;4.20;;;2.93;;
6505;SDS011;3286;49.858;8.768;2023-03-22T03:04:26;6.00;;;2.83;;
6505;SDS011;3286;49.858;8.768;2023-03-22T03:06:56;3.50;;;2.77;;
6505;SDS011;3286;49.858;8.768;2023-03-22T03:09:29;4.83;;;3.07;;
6505;SDS011;3286;49.858;8.768;2023-03-22T03:11:57;3.80;;;2.93;;
6505;SDS011;3286;49.858;8.768;2023-03-22T03:14:25;4.93;;;2.70;;
6505;SDS011;3286;49.858;8.768;2023-03-22T03:19:52;4.73;;;3.03;;
6505;SDS011;3286;49.858;8.768;2023-03-22T03:22:30;4.07;;;2.87;;
6505;SDS011;3286;49.858;8.768;2023-03-22T03:25:07;3.83;;;3.07;;
6505;SDS011;3286;49.858;8.768;2023-03-22T03:27:44;5.03;;;3.37;;
6505;SDS011;3286;49.858;8.768;2023-03-22T03:30:15;6.03;;;3.40;;
6505;SDS011;3286;49.858;8.768;2023-03-22T03:32:48;6.03;;;3.23;;
6505;SDS011;3286;49.858;8.768;2023-03-22T03:35:20;5.97;;;3.30;;
6505;SDS011;3286;49.858;8.768;2023-03-22T03:37:50;6.60;;;3.30;;
6505;SDS011;3286;49.858;8.768;2023-03-22T03:40:23;5.37;;;3.23;;
6505;SDS011;3286;49.858;8.768;2023-03-22T03:42:53;6.00;;;3.00;;
6505;SDS011;3286;49.858;8.768;2023-03-22T03:45:24;4.53;;;2.90;;
6505;SDS011;3286;49.858;8.768;2023-03-22T03:47:52;5.37;;;3.03;;
6505;SDS011;3286;49.858;8.768;2023-03-22T03:50:22;4.63;;;3.13;;
6505;SDS011;3286;49.858;8.768;2023-03-22T03:52:50;5.10;;;3.03;;
6505;SDS011;3286;49.858;8.768;2023-03-22T03:55:18;4.23;;;2.93;;
6505;SDS011;3286;49.858;8.768;2023-03-22T03:57:47;3.80;;;3.20;;
6505;SDS011;3286;49.858;8.768;2023-03-22T04:00:14;6.47;;;3.23;;
6505;SDS011;3286;49.858;8.768;2023-03-22T04:02:42;3.43;;;2.80;;
6505;SDS011;3286;49.858;8.768;2023-03-22T04:05:10;4.07;;;3.10;;
6505;SDS011;3286;49.858;8.768;2023-03-22T04:07:37;5.23;;;2.87;;
6505;SDS011;3286;49.858;8.768;2023-03-22T04:10:05;4.23;;;2.80;;
6505;SDS011;3286;49.858;8.768;2023-03-22T04:12:32;4.83;;;2.90;;
6505;SDS011;3286;49.858;8.768;2023-03-22T04:15:01;3.90;;;3.07;;
6505;SDS011;3286;49.858;8.768;2023-03-22T04:17:27;5.27;;;2.80;;
6505;SDS011;3286;49.858;8.768;2023-03-22T04:19:56;3.87;;;2.93;;
6505;SDS011;3286;49.858;8.768;2023-03-22T04:22:23;5.90;;;2.87;;
6505;SDS011;3286;49.858;8.768;2023-03-22T04:24:50;7.00;;;3.10;;
6505;SDS011;3286;49.858;8.768;2023-03-22T04:27:17;3.93;;;3.10;;
6505;SDS011;3286;49.858;8.768;2023-03-22T04:29:45;7.33;;;3.00;;
6505;SDS011;3286;49.858;8.768;2023-03-22T04:32:16;7.23;;;3.27;;
6505;SDS011;3286;49.858;8.768;2023-03-22T04:34:46;5.00;;;2.93;;
6505;SDS011;3286;49.858;8.768;2023-03-22T04:37:13;5.03;;;3.10;;
6505;SDS011;3286;49.858;8.768;2023-03-22T04:39:40;4.03;;;2.87;;
6505;SDS011;3286;49.858;8.768;2023-03-22T04:42:08;6.07;;;2.93;;
6505;SDS011;3286;49.858;8.768;2023-03-22T04:44:35;4.73;;;3.03;;
6505;SDS011;3286;49.858;8.768;2023-03-22T04:47:02;4.60;;;2.67;;
6505;SDS011;3286;49.858;8.768;2023-03-22T04:49:30;5.70;;;2.97;;
6505;SDS011;3286;49.858;8.768;2023-03-22T04:51:56;4.03;;;2.90;;
6505;SDS011;3286;49.858;8.768;2023-03-22T04:54:23;5.43;;;2.93;;
6505;SDS011;3286;49.858;8.768;2023-03-22T04:56:50;5.93;;;3.00;;
6505;SDS011;3286;49.858;8.768;2023-03-22T04:59:17;4.03;;;2.67;;
6505;SDS011;3286;49.858;8.768;2023-03-22T05:01:44;4.87;;;2.80;;
6505;SDS011;3286;49.858;8.768;2023-03-22T05:04:11;5.43;;;3.20;;
6505;SDS011;3286;49.858;8.768;2023-03-22T05:06:39;4.13;;;2.73;;
6505;SDS011;3286;49.858;8.768;2023-03-22T05:09:06;5.63;;;2.77;;
6505;SDS011;3286;49.858;8.768;2023-03-22T05:11:32;6.27;;;3.10;;
6505;SDS011;3286;49.858;8.768;2023-03-22T05:13:59;4.40;;;3.07;;
6505;SDS011;3286;49.858;8.768;2023-03-22T05:16:25;4.57;;;2.63;;
6505;SDS011;3286;49.858;8.768;2023-03-22T05:18:52;6.23;;;3.00;;
6505;SDS011;3286;49.858;8.768;2023-03-22T05:21:20;3.50;;;2.77;;
6505;SDS011;3286;49.858;8.768;2023-03-22T05:23:54;5.37;;;3.30;;
6505;SDS011;3286;49.858;8.768;2023-03-22T05:26:22;7.00;;;3.67;;
6505;SDS011;3286;49.858;8.768;2023-03-22T05:28:50;4.50;;;3.17;;
6505;SDS011;3286;49.858;8.768;2023-03-22T05:31:17;3.97;;;2.90;;
6505;SDS011;3286;49.858;8.768;2023-03-22T05:33:46;6.37;;;3.40;;
6505;SDS011;3286;49.858;8.768;2023-03-22T05:36:12;17.70;;;5.27;;
6505;SDS011;3286;49.858;8.768;2023-03-22T05:38:39;6.47;;;3.13;;
6505;SDS011;3286;49.858;8.768;2023-03-22T05:41:07;4.63;;;3.10;;
6505;SDS011;3286;49.858;8.768;2023-03-22T05:43:34;5.73;;;2.87;;
6505;SDS011;3286;49.858;8.768;2023-03-22T05:46:03;5.27;;;2.90;;
6505;SDS011;3286;49.858;8.768;2023-03-22T05:48:30;8.87;;;3.03;;
6505;SDS011;3286;49.858;8.768;2023-03-22T05:50:57;4.07;;;2.80;;
6505;SDS011;3286;49.858;8.768;2023-03-22T05:53:25;5.27;;;3.07;;
6505;SDS011;3286;49.858;8.768;2023-03-22T05:55:51;7.03;;;3.50;;
6505;SDS011;3286;49.858;8.768;2023-03-22T05:58:23;5.03;;;3.03;;
6505;SDS011;3286;49.858;8.768;2023-03-22T06:00:53;5.97;;;2.73;;
6505;SDS011;3286;49.858;8.768;2023-03-22T06:03:19;8.50;;;3.00;;
6505;SDS011;3286;49.858;8.768;2023-03-22T06:05:46;4.20;;;3.37;;
6505;SDS011;3286;49.858;8.768;2023-03-22T06:08:14;3.60;;;3.00;;
6505;SDS011;3286;49.858;8.768;2023-03-22T06:10:41;3.63;;;2.97;;
6505;SDS011;3286;49.858;8.768;2023-03-22T06:13:08;6.23;;;3.30;;
6505;SDS011;3286;49.858;8.768;2023-03-22T06:15:36;5.57;;;2.90;;
6505;SDS011;3286;49.858;8.768;2023-03-22T06:18:02;7.10;;;3.33;;
6505;SDS011;3286;49.858;8.768;2023-03-22T06:20:29;5.13;;;2.87;;
6505;SDS011;3286;49.858;8.768;2023-03-22T06:22:56;5.20;;;2.80;;
6505;SDS011;3286;49.858;8.768;2023-03-22T06:25:22;6.20;;;3.30;;
6505;SDS011;3286;49.858;8.768;2023-03-22T06:27:49;5.17;;;2.80;;
6505;SDS011;3286;49.858;8.768;2023-03-22T06:30:15;3.20;;;2.70;;
6505;SDS011;3286;49.858;8.768;2023-03-22T06:32:44;3.27;;;2.47;;
6505;SDS011;3286;49.858;8.768;2023-03-22T06:35:11;4.47;;;2.50;;
6505;SDS011;3286;49.858;8.768;2023-03-22T06:37:37;4.53;;;2.70;;
6505;SDS011;3286;49.858;8.768;2023-03-22T06:40:05;4.87;;;2.87;;
6505;SDS011;3286;49.858;8.768;2023-03-22T06:42:32;5.17;;;2.80;;
6505;SDS011;3286;49.858;8.768;2023-03-22T06:44:59;5.03;;;2.67;;
6505;SDS011;3286;49.858;8.768;2023-03-22T06:47:26;3.53;;;2.30;;
6505;SDS011;3286;49.858;8.768;2023-03-22T06:49:54;4.07;;;2.40;;
6505;SDS011;3286;49.858;8.768;2023-03-22T06:52:20;4.97;;;2.40;;
6505;SDS011;3286;49.858;8.768;2023-03-22T06:54:47;3.93;;;2.53;;
6505;SDS011;3286;49.858;8.768;2023-03-22T06:57:14;5.90;;;2.40;;
6505;SDS011;3286;49.858;8.768;2023-03-22T06:59:40;6.20;;;2.50;;
6505;SDS011;3286;49.858;8.768;2023-03-22T07:02:08;6.37;;;2.40;;
6505;SDS011;3286;49.858;8.768;2023-03-22T07:04:36;3.33;;;2.30;;
6505;SDS011;3286;49.858;8.768;2023-03-22T07:07:04;4.23;;;2.80;;
6505;SDS011;3286;49.858;8.768;2023-03-22T07:09:31;5.40;;;2.80;;
6505;SDS011;3286;49.858;8.768;2023-03-22T07:11:57;3.37;;;2.27;;
6505;SDS011;3286;49.858;8.768;2023-03-22T07:14:24;3.00;;;2.20;;
6505;SDS011;3286;49.858;8.768;2023-03-22T07:16:51;2.70;;;1.73;;
6505;SDS011;3286;49.858;8.768;2023-03-22T07:19:17;2.73;;;2.00;;
6505;SDS011;3286;49.858;8.768;2023-03-22T07:21:44;6.40;;;2.60;;
6505;SDS011;3286;49.858;8.768;2023-03-22T07:24:12;2.90;;;2.10;;
6505;SDS011;3286;49.858;8.768;2023-03-22T07:26:39;6.70;;;2.30;;
6505;SDS011;3286;49.858;8.768;2023-03-22T07:29:06;3.23;;;2.13;;
6505;SDS011;3286;49.858;8.768;2023-03-22T07:31:33;3.23;;;2.00;;
6505;SDS011;3286;49.858;8.768;2023-03-22T07:34:00;2.70;;;1.90;;
6505;SDS011;3286;49.858;8.768;2023-03-22T07:36:28;4.23;;;2.00;;
6505;SDS011;3286;49.858;8.768;2023-03-22T07:38:55;4.43;;;2.20;;
6505;SDS011;3286;49.858;8.768;2023-03-22T07:41:23;2.10;;;1.80;;
6505;SDS011;3286;49.858;8.768;2023-03-22T07:43:51;3.13;;;1.90;;
6505;SDS011;3286;49.858;8.768;2023-03-22T07:46:17;4.17;;;2.20;;
6505;SDS011;3286;49.858;8.768;2023-03-22T07:48:44;3.90;;;1.73;;
6505;SDS011;3286;49.858;8.768;2023-03-22T07:51:11;6.30;;;2.23;;
6505;SDS011;3286;49.858;8.768;2023-03-22T07:53:37;8.10;;;2.40;;
6505;SDS011;3286;49.858;8.768;2023-03-22T07:56:04;4.27;;;2.00;;
6505;SDS011;3286;49.858;8.768;2023-03-22T07:58:33;2.53;;;2.00;;
6505;SDS011;3286;49.858;8.768;2023-03-22T08:01:02;3.47;;;1.67;;
6505;SDS011;3286;49.858;8.768;2023-03-22T08:03:29;4.33;;;1.90;;
6505;SDS011;3286;49.858;8.768;2023-03-22T08:05:59;9.43;;;1.88;;
6505;SDS011;3286;49.858;8.768;2023-03-22T08:08:28;4.20;;;1.77;;
6505;SDS011;3286;49.858;8.768;2023-03-22T08:10:54;2.95;;;1.73;;
6505;SDS011;3286;49.858;8.768;2023-03-22T08:13:21;7.05;;;2.42;;
6505;SDS011;3286;49.858;8.768;2023-03-22T08:15:49;3.95;;;1.83;;
6505;SDS011;3286;49.858;8.768;2023-03-22T08:18:16;3.97;;;1.47;;
6505;SDS011;3286;49.858;8.768;2023-03-22T08:20:42;3.90;;;1.58;;
6505;SDS011;3286;49.858;8.768;2023-03-22T08:23:09;4.03;;;1.40;;
6505;SDS011;3286;49.858;8.768;2023-03-22T08:25:39;4.20;;;1.75;;
6505;SDS011;3286;49.858;8.768;2023-03-22T08:28:07;2.72;;;1.73;;
6505;SDS011;3286;49.858;8.768;2023-03-22T08:30:34;1.75;;;1.30;;
6505;SDS011;3286;49.858;8.768;2023-03-22T08:33:02;2.33;;;1.33;;
6505;SDS011;3286;49.858;8.768;2023-03-22T08:35:30;6.03;;;1.60;;
6505;SDS011;3286;49.858;8.768;2023-03-22T08:37:57;2.35;;;1.20;;
6505;SDS011;3286;49.858;8.768;2023-03-22T08:40:23;2.67;;;1.42;;
6505;SDS011;3286;49.858;8.768;2023-03-22T08:42:50;6.15;;;1.50;;
6505;SDS011;3286;49.858;8.768;2023-03-22T08:45:17;1.55;;;1.05;;
6505;SDS011;3286;49.858;8.768;2023-03-22T08:47:43;1.80;;;1.08;;
6505;SDS011;3286;49.858;8.768;2023-03-22T08:50:12;1.88;;;1.27;;
6505;SDS011;3286;49.858;8.768;2023-03-22T08:52:38;2.58;;;1.40;;
6505;SDS011;3286;49.858;8.768;2023-03-22T08:55:05;2.80;;;1.60;;
6505;SDS011;3286;49.858;8.768;2023-03-22T08:57:33;2.00;;;1.42;;
6505;SDS011;3286;49.858;8.768;2023-03-22T09:00:00;2.72;;;1.70;;
6505;SDS011;3286;49.858;8.768;2023-03-22T09:02:28;2.53;;;1.42;;
6505;SDS011;3286;49.858;8.768;2023-03-22T09:04:55;4.80;;;1.80;;
6505;SDS011;3286;49.858;8.768;2023-03-22T09:07:23;6.25;;;2.15;;
6505;SDS011;3286;49.858;8.768;2023-03-22T09:09:49;3.78;;;1.83;;
6505;SDS011;3286;49.858;8.768;2023-03-22T09:12:16;6.85;;;2.10;;
6505;SDS011;3286;49.858;8.768;2023-03-22T09:14:43;4.22;;;1.85;;
6505;SDS011;3286;49.858;8.768;2023-03-22T09:17:10;3.22;;;1.90;;
6505;SDS011;3286;49.858;8.768;2023-03-22T09:19:37;4.80;;;2.08;;
6505;SDS011;3286;49.858;8.768;2023-03-22T09:22:04;2.60;;;1.70;;
6505;SDS011;3286;49.858;8.768;2023-03-22T09:24:32;3.35;;;1.40;;
6505;SDS011;3286;49.858;8.768;2023-03-22T09:26:59;4.47;;;2.08;;
6505;SDS011;3286;49.858;8.768;2023-03-22T09:29:25;5.10;;;1.90;;
6505;SDS011;3286;49.858;8.768;2023-03-22T09:31:52;1.55;;;1.38;;
6505;SDS011;3286;49.858;8.768;2023-03-22T09:34:18;3.03;;;1.80;;
6505;SDS011;3286;49.858;8.768;2023-03-22T09:36:46;1.98;;;1.75;;
6505;SDS011;3286;49.858;8.768;2023-03-22T09:39:12;4.78;;;1.70;;
6505;SDS011;3286;49.858;8.768;2023-03-22T09:41:43;2.42;;;2.08;;
6505;SDS011;3286;49.858;8.768;2023-03-22T09:44:12;2.80;;;1.70;;
6505;SDS011;3286;49.858;8.768;2023-03-22T09:46:46;5.90;;;1.58;;
6505;SDS011;3286;49.858;8.768;2023-03-22T09:49:16;4.22;;;1.80;;
6505;SDS011;3286;49.858;8.768;2023-03-22T09:51:46;4.07;;;1.98;;
6505;SDS011;3286;49.858;8.768;2023-03-22T09:54:15;2.13;;;1.70;;
6505;SDS011;3286;49.858;8.768;2023-03-22T09:56:48;3.10;;;1.58;;
6505;SDS011;3286;49.858;8.768;2023-03-22T09:59:21;2.63;;;1.50;;
6505;SDS011;3286;49.858;8.768;2023-03-22T10:01:52;2.33;;;1.70;;
6505;SDS011;3286;49.858;8.768;2023-03-22T10:04:37;3.33;;;1.42;;
6505;SDS011;3286;49.858;8.768;2023-03-22T10:07:13;3.10;;;1.65;;
6505;SDS011;3286;49.858;8.768;2023-03-22T10:09:52;2.92;;;1.58;;
6505;SDS011;3286;49.858;8.768;2023-03-22T10:12:34;3.50;;;1.20;;
6505;SDS011;3286;49.858;8.768;2023-03-22T10:15:09;2.20;;;1.30;;
6505;SDS011;3286;49.858;8.768;2023-03-22T10:17:40;1.45;;;1.10;;
6505;SDS011;3286;49.858;8.768;2023-03-22T10:20:17;3.28;;;1.20;;
6505;SDS011;3286;49.858;8.768;2023-03-22T10:22:52;1.63;;;1.20;;
6505;SDS011;3286;49.858;8.768;2023-03-22T10:25:22;1.52;;;0.90;;
6505;SDS011;3286;49.858;8.768;2023-03-22T10:28:05;1.45;;;1.02;;
6505;SDS011;3286;49.858;8.768;2023-03-22T10:30:40;1.48;;;1.20;;
6505;SDS011;3286;49.858;8.768;2023-03-22T10:33:11;1.63;;;0.95;;
6505;SDS011;3286;49.858;8.768;2023-03-22T10:35:40;1.75;;;1.10;;
6505;SDS011;3286;49.858;8.768;2023-03-22T10:38:08;1.80;;;1.08;;
6505;SDS011;3286;49.858;8.768;2023-03-22T10:40:44;11.32;;;1.50;;
6505;SDS011;3286;49.858;8.768;2023-03-22T10:43:14;2.15;;;0.93;;
6505;SDS011;3286;49.858;8.768;2023-03-22T10:45:46;0.98;;;0.90;;
6505;SDS011;3286;49.858;8.768;2023-03-22T10:48:15;2.58;;;1.10;;
6505;SDS011;3286;49.858;8.768;2023-03-22T10:50:50;2.22;;;1.13;;
6505;SDS011;3286;49.858;8.768;2023-03-22T10:53:19;1.15;;;1.02;;
6505;SDS011;3286;49.858;8.768;2023-03-22T10:55:53;1.15;;;1.05;;
6505;SDS011;3286;49.858;8.768;2023-03-22T10:58:21;1.85;;;1.08;;
6505;SDS011;3286;49.858;8.768;2023-03-22T11:00:55;2.90;;;1.10;;
6505;SDS011;3286;49.858;8.768;2023-03-22T11:03:28;2.15;;;1.10;;
6505;SDS011;3286;49.858;8.768;2023-03-22T11:05:57;2.17;;;1.17;;
6505;SDS011;3286;49.858;8.768;2023-03-22T11:08:25;1.40;;;1.02;;
6505;SDS011;3286;49.858;8.768;2023-03-22T11:10:52;2.10;;;0.98;;
6505;SDS011;3286;49.858;8.768;2023-03-22T11:13:24;0.98;;;0.80;;
6505;SDS011;3286;49.858;8.768;2023-03-22T11:15:53;1.77;;;1.02;;
6505;SDS011;3286;49.858;8.768;2023-03-22T11:18:23;3.45;;;0.95;;
6505;SDS011;3286;49.858;8.768;2023-03-22T11:20:55;1.10;;;0.98;;
6505;SDS011;3286;49.858;8.768;2023-03-22T11:23:24;1.27;;;1.05;;
6505;SDS011;3286;49.858;8.768;2023-03-22T11:25:54;1.45;;;0.88;;
6505;SDS011;3286;49.858;8.768;2023-03-22T11:28:26;1.55;;;0.88;;
6505;SDS011;3286;49.858;8.768;2023-03-22T11:30:59;1.20;;;1.10;;
6505;SDS011;3286;49.858;8.768;2023-03-22T11:33:29;1.60;;;0.95;;
6505;SDS011;3286;49.858;8.768;2023-03-22T11:35:57;1.40;;;0.95;;
6505;SDS011;3286;49.858;8.768;2023-03-22T11:38:26;1.15;;;0.93;;
6505;SDS011;3286;49.858;8.768;2023-03-22T11:40:55;3.30;;;1.00;;
6505;SDS011;3286;49.858;8.768;2023-03-22T11:43:26;1.63;;;0.90;;
6505;SDS011;3286;49.858;8.768;2023-03-22T11:45:58;1.10;;;1.00;;
6505;SDS011;3286;49.858;8.768;2023-03-22T11:48:26;2.63;;;1.27;;
6505;SDS011;3286;49.858;8.768;2023-03-22T11:50:57;1.20;;;1.10;;
6505;SDS011;3286;49.858;8.768;2023-03-22T11:53:30;1.40;;;1.30;;
6505;SDS011;3286;49.858;8.768;2023-03-22T11:55:58;1.98;;;1.10;;
6505;SDS011;3286;49.858;8.768;2023-03-22T11:58:34;2.28;;;1.40;;
6505;SDS011;3286;49.858;8.768;2023-03-22T12:01:11;1.30;;;1.17;;
6505;SDS011;3286;49.858;8.768;2023-03-22T12:03:41;1.92;;;1.08;;
6505;SDS011;3286;49.858;8.768;2023-03-22T12:06:18;2.85;;;1.42;;
6505;SDS011;3286;49.858;8.768;2023-03-22T12:08:48;2.65;;;1.55;;
6505;SDS011;3286;49.858;8.768;2023-03-22T12:11:20;1.42;;;1.13;;
6505;SDS011;3286;49.858;8.768;2023-03-22T12:13:55;1.77;;;1.00;;
6505;SDS011;3286;49.858;8.768;2023-03-22T12:16:27;2.45;;;1.25;;
6505;SDS011;3286;49.858;8.768;2023-03-22T12:19:00;1.33;;;1.02;;
6505;SDS011;3286;49.858;8.768;2023-03-22T12:21:32;3.33;;;1.65;;
6505;SDS011;3286;49.858;8.768;2023-03-22T12:24:00;4.25;;;1.20;;
6505;SDS011;3286;49.858;8.768;2023-03-22T12:26:28;2.58;;;0.90;;
6505;SDS011;3286;49.858;8.768;2023-03-22T12:29:01;1.58;;;1.00;;
6505;SDS011;3286;49.858;8.768;2023-03-22T12:31:31;1.65;;;1.05;;
6505;SDS011;3286;49.858;8.768;2023-03-22T12:34:04;2.30;;;0.90;;
6505;SDS011;3286;49.858;8.768;2023-03-22T12:36:34;1.67;;;0.95;;
6505;SDS011;3286;49.858;8.768;2023-03-22T12:39:05;0.80;;;0.68;;
6505;SDS011;3286;49.858;8.768;2023-03-22T12:41:35;0.80;;;0.80;;
6505;SDS011;3286;49.858;8.768;2023-03-22T12:44:08;4.32;;;1.00;;
6505;SDS011;3286;49.858;8.768;2023-03-22T12:46:39;1.35;;;0.90;;
6505;SDS011;3286;49.858;8.768;2023-03-22T12:49:15;1.38;;;0.82;;
6505;SDS011;3286;49.858;8.768;2023-03-22T12:51:48;1.02;;;0.95;;
6505;SDS011;3286;49.858;8.768;2023-03-22T12:54:21;2.55;;;0.93;;
6505;SDS011;3286;49.858;8.768;2023-03-22T12:56:49;2.53;;;1.02;;
6505;SDS011;3286;49.858;8.768;2023-03-22T12:59:18;3.05;;;0.90;;
6505;SDS011;3286;49.858;8.768;2023-03-22T13:01:50;0.80;;;0.80;;
6505;SDS011;3286;49.858;8.768;2023-03-22T13:04:28;0.68;;;0.68;;
6505;SDS011;3286;49.858;8.768;2023-03-22T13:06:57;0.88;;;0.82;;
6505;SDS011;3286;49.858;8.768;2023-03-22T13:09:36;1.48;;;1.25;;
6505;SDS011;3286;49.858;8.768;2023-03-22T13:12:26;1.35;;;0.90;;
6505;SDS011;3286;49.858;8.768;2023-03-22T13:14:59;1.70;;;1.00;;
6505;SDS011;3286;49.858;8.768;2023-03-22T13:17:32;3.13;;;0.88;;
6505;SDS011;3286;49.858;8.768;2023-03-22T13:23:03;1.63;;;1.00;;
6505;SDS011;3286;49.858;8.768;2023-03-22T13:25:37;1.70;;;1.10;;
6505;SDS011;3286;49.858;8.768;2023-03-22T13:28:19;6.28;;;2.33;;
6505;SDS011;3286;49.858;8.768;2023-03-22T13:30:51;7.60;;;3.08;;
6505;SDS011;3286;49.858;8.768;2023-03-22T13:33:23;1.38;;;0.80;;
6505;SDS011;3286;49.858;8.768;2023-03-22T13:35:52;2.28;;;0.98;;
6505;SDS011;3286;49.858;8.768;2023-03-22T13:38:22;4.03;;;1.10;;
6505;SDS011;3286;49.858;8.768;2023-03-22T13:40:55;1.25;;;1.00;;
6505;SDS011;3286;49.858;8.768;2023-03-22T13:43:27;1.13;;;0.90;;
6505;SDS011;3286;49.858;8.768;2023-03-22T13:46:01;1.05;;;1.05;;
6505;SDS011;3286;49.858;8.768;2023-03-22T13:48:39;7.68;;;1.10;;
6505;SDS011;3286;49.858;8.768;2023-03-22T13:51:17;1.90;;;1.00;;
6505;SDS011;3286;49.858;8.768;2023-03-22T13:53:52;2.10;;;0.95;;
6505;SDS011;3286;49.858;8.768;2023-03-22T13:56:29;2.30;;;1.30;;
6505;SDS011;3286;49.858;8.768;2023-03-22T13:58:58;1.85;;;1.17;;
6505;SDS011;3286;49.858;8.768;2023-03-22T14:01:29;1.67;;;1.02;;
6505;SDS011;3286;49.858;8.768;2023-03-22T14:04:00;1.45;;;1.08;;
6505;SDS011;3286;49.858;8.768;2023-03-22T14:06:34;1.38;;;0.90;;
6505;SDS011;3286;49.858;8.768;2023-03-22T14:09:09;3.65;;;1.85;;
6505;SDS011;3286;49.858;8.768;2023-03-22T14:11:45;3.00;;;0.95;;
6505;SDS011;3286;49.858;8.768;2023-03-22T14:14:16;7.65;;;1.17;;
6505;SDS011;3286;49.858;8.768;2023-03-22T14:16:49;1.10;;;0.93;;
6505;SDS011;3286;49.858;8.768;2023-03-22T14:19:19;1.63;;;1.20;;
6505;SDS011;3286;49.858;8.768;2023-03-22T14:21:48;1.65;;;0.93;;
6505;SDS011;3286;49.858;8.768;2023-03-22T14:24:18;1.08;;;0.98;;
6505;SDS011;3286;49.858;8.768;2023-03-22T14:26:48;1.33;;;0.82;;
6505;SDS011;3286;49.858;8.768;2023-03-22T14:29:18;5.75;;;1.20;;
6505;SDS011;3286;49.858;8.768;2023-03-22T14:31:53;10.73;;;2.15;;
6505;SDS011;3286;49.858;8.768;2023-03-22T14:34:23;1.33;;;1.00;;
6505;SDS011;3286;49.858;8.768;2023-03-22T14:36:53;3.35;;;0.90;;
6505;SDS011;3286;49.858;8.768;2023-03-22T14:39:25;1.85;;;0.95;;
6505;SDS011;3286;49.858;8.768;2023-03-22T14:41:58;3.33;;;1.02;;
6505;SDS011;3286;49.858;8.768;2023-03-22T14:44:26;1.10;;;0.70;;
6505;SDS011;3286;49.858;8.768;2023-03-22T14:47:01;4.07;;;1.05;;
6505;SDS011;3286;49.858;8.768;2023-03-22T14:49:37;1.15;;;0.80;;
6505;SDS011;3286;49.858;8.768;2023-03-22T14:52:05;1.25;;;0.82;;
6505;SDS011;3286;49.858;8.768;2023-03-22T14:54:38;1.33;;;1.00;;
6505;SDS011;3286;49.858;8.768;2023-03-22T14:57:09;1.60;;;0.70;;
6505;SDS011;3286;49.858;8.768;2023-03-22T14:59:37;1.63;;;1.10;;
6505;SDS011;3286;49.858;8.768;2023-03-22T15:02:19;1.10;;;1.00;;
6505;SDS011;3286;49.858;8.768;2023-03-22T15:04:48;1.52;;;0.80;;
6505;SDS011;3286;49.858;8.768;2023-03-22T15:07:17;1.33;;;1.08;;
6505;SDS011;3286;49.858;8.768;2023-03-22T15:09:44;2.63;;;0.88;;
6505;SDS011;3286;49.858;8.768;2023-03-22T15:12:11;1.27;;;1.10;;
6505;SDS011;3286;49.858;8.768;2023-03-22T15:14:38;4.93;;;1.20;;
6505;SDS011;3286;49.858;8.768;2023-03-22T15:17:08;1.20;;;0.70;;
6505;SDS011;3286;49.858;8.768;2023-03-22T15:19:39;1.83;;;1.10;;
6505;SDS011;3286;49.858;8.768;2023-03-22T15:22:11;1.23;;;1.13;;
6505;SDS011;3286;49.858;8.768;2023-03-22T15:24:47;3.10;;;1.10;;
6505;SDS011;3286;49.858;8.768;2023-03-22T15:27:16;6.25;;;1.00;;
6505;SDS011;3286;49.858;8.768;2023-03-22T15:29:44;0.90;;;0.77;;
6505;SDS011;3286;49.858;8.768;2023-03-22T15:32:14;1.23;;;0.93;;
6505;SDS011;3286;49.858;8.768;2023-03-22T15:34:43;6.78;;;0.90;;
6505;SDS011;3286;49.858;8.768;2023-03-22T15:37:11;3.58;;;0.93;;
6505;SDS011;3286;49.858;8.768;2023-03-22T15:39:42;1.40;;;0.90;;